To NAV CANADA Home Page Login to a new session Search on AWWS site Disclaimer Vers la page française équivalente Tips FAQ What's new on the site To the Forecasts and Observations / NOTAM section To "File a Flight Plan" website Publications and other links Update of the User's profile FIC Telephone Numbers My Weather Data Folder Route Weather Data Regional Weather Data Local Weather Data To the Forecasts and Observations / NOTAM section
Request Generated 03/19/2019 at 23:03:01 UTC . Weather information available at that time is displayed.

METAR/TAF

ALERT/NU    

METAR CYLT 192200Z 32012KT 3SM IC BLSN OVC018 M33/M37 A2986 RMK SC8 SLP117=
METAR CYLT 192100Z 33012KT 1 3/4SM IC BLSN FEW005 OVC020 M33/M37 A2985 RMK ST2SC6 SLP114=
METAR CYLT 192000Z 33014KT 3SM IC BLSN BKN025 OVC200 M34/M37 A2984 RMK SC7CI1 SLP110=

TAF AMD CYLT 192109Z 1921/2006 33012KT P6SM BKN025 TEMPO 1921/2006
1SM -SN BLSN SCT005 OVC020
RMK NXT FCST BY 200000Z=
Your time UTC time
Weather data provided by Environment Canada and NAV CANADA